チューク諸島 の空港の天気 - METARとTAF

チューク国際空港 ( PTKK / TKK ) - ミクロネシア連邦 チューク諸島
飛行場実況気象(Metar)
観測時間08/05 08:50 +10 (08/04 22:50 UTC)
風向・風速北東 4m/s
視程10km以上
天気現象
少しの雲 雲底高度 430m
全天の4割程度の雲 雲底高度 8530m
気温29.9℃
湿度79%
気圧1009.8hPa
METARPTKK 042250Z 05007KT 15SM FEW014 SCT280 30/26 A2981 RMK SLP098 T02990259
過去の天気等 Google飛行場航空写真 Wunderground天気予報

過去48時間のMETAR

飛行場予報(TAF)
発表時間: 8/05 03:20 +10 (8/04 17:20 UTC)
予報対象時間: 5日4時 +10 ~ 6日4時 +10
風向・風速東 4m/s
視程10km以上
天気現象周辺でしゅう雨
全天の4割程度の雲 雲底高度 370m
全天の8割程度の雲 雲底高度 1220m
全天を覆う雲 雲底高度 3660m
PTKK 041720Z 0418/0518 10007KT P6SM VCSH SCT012 BKN040 OVC120